createdAt,value
2022-12-11T00:01:21.867Z,6.20
2022-12-11T00:03:50.808Z,5.80
2022-12-11T00:06:23.238Z,6.20
2022-12-11T00:08:54.352Z,6.70
2022-12-11T00:11:23.637Z,4.90
2022-12-11T00:13:51.703Z,5.40
2022-12-11T00:16:25.321Z,6.10
2022-12-11T00:18:55.807Z,7.30
2022-12-11T00:21:23.895Z,5.90
2022-12-11T00:23:52.274Z,6.80
2022-12-11T00:26:20.244Z,5.60
2022-12-11T00:28:52.207Z,6.00
2022-12-11T00:31:22.209Z,6.40
2022-12-11T00:33:51.454Z,6.40
2022-12-11T00:36:26.583Z,6.10
2022-12-11T00:41:23.116Z,5.00
2022-12-11T00:43:51.591Z,5.30
2022-12-11T00:46:19.833Z,5.40
2022-12-11T00:48:49.979Z,6.60
2022-12-11T00:51:18.371Z,5.00
2022-12-11T00:53:46.548Z,5.60
2022-12-11T00:56:23.406Z,7.50
2022-12-11T00:58:51.453Z,5.80
2022-12-11T01:01:23.746Z,5.40
2022-12-11T01:03:54.359Z,6.20
2022-12-11T01:06:25.543Z,6.10
2022-12-11T01:09:15.349Z,5.90
2022-12-11T01:11:44.124Z,5.20
2022-12-11T01:14:12.490Z,5.80
2022-12-11T01:16:40.717Z,5.10
2022-12-11T01:19:09.249Z,5.20
2022-12-11T01:21:37.228Z,5.60
2022-12-11T01:24:05.933Z,5.90
2022-12-11T01:26:34.168Z,5.60
2022-12-11T01:29:02.354Z,5.60
2022-12-11T01:31:30.428Z,6.10
2022-12-11T01:33:58.385Z,5.90
2022-12-11T01:36:26.492Z,6.00
2022-12-11T01:38:54.858Z,5.40
2022-12-11T01:41:23.225Z,6.00
2022-12-11T01:44:08.457Z,6.20
2022-12-11T01:46:37.407Z,5.20
2022-12-11T01:49:14.072Z,5.80
2022-12-11T01:52:03.329Z,5.30
2022-12-11T01:54:31.977Z,5.90
2022-12-11T01:57:06.197Z,6.30
2022-12-11T01:59:39.181Z,5.50
2022-12-11T02:02:23.962Z,5.30
2022-12-11T02:04:51.980Z,5.40
2022-12-11T02:07:20.232Z,5.20
2022-12-11T02:09:49.328Z,5.10
2022-12-11T02:12:47.539Z,5.60
2022-12-11T02:15:38.004Z,5.60
2022-12-11T02:18:47.756Z,5.90
2022-12-11T02:21:26.125Z,5.60
2022-12-11T02:24:32.347Z,5.30
2022-12-11T02:27:40.773Z,6.10
2022-12-11T02:30:14.995Z,5.40
2022-12-11T02:32:45.757Z,6.40
2022-12-11T02:35:28.620Z,5.20
2022-12-11T02:38:05.585Z,5.40
2022-12-11T02:40:38.690Z,6.00
2022-12-11T02:43:12.202Z,5.90
2022-12-11T02:45:42.693Z,5.00
2022-12-11T02:48:14.137Z,4.90
2022-12-11T02:50:47.476Z,6.80
2022-12-11T02:53:22.762Z,6.00
2022-12-11T02:56:01.318Z,5.60
2022-12-11T02:58:33.278Z,5.80
2022-12-11T03:01:01.593Z,5.20
2022-12-11T03:03:31.126Z,5.80
2022-12-11T03:05:59.347Z,5.40
2022-12-11T03:08:27.301Z,5.20
2022-12-11T03:10:55.369Z,5.80
2022-12-11T03:13:24.672Z,5.60
2022-12-11T03:16:56.172Z,5.20
2022-12-11T03:19:55.248Z,5.90
2022-12-11T03:22:39.291Z,5.90
2022-12-11T03:25:20.686Z,6.10
2022-12-11T03:28:19.676Z,5.20
2022-12-11T03:30:53.676Z,5.40
2022-12-11T03:33:31.377Z,6.20
2022-12-11T03:36:11.003Z,4.90
2022-12-11T03:38:56.820Z,6.40
2022-12-11T03:41:28.023Z,5.90
2022-12-11T03:43:58.924Z,5.40
2022-12-11T03:46:39.099Z,5.60
2022-12-11T03:49:23.702Z,5.40
2022-12-11T03:51:55.966Z,6.20
2022-12-11T03:54:26.142Z,6.10
2022-12-11T03:56:59.291Z,6.20
2022-12-11T03:59:27.377Z,6.40
2022-12-11T04:01:55.499Z,6.00
2022-12-11T04:04:23.463Z,5.50
2022-12-11T04:06:51.690Z,5.40
2022-12-11T04:09:19.676Z,6.30
2022-12-11T04:11:47.644Z,6.60
2022-12-11T04:14:34.329Z,5.40
2022-12-11T04:17:02.415Z,5.70
2022-12-11T04:19:49.316Z,5.30
2022-12-11T04:22:37.292Z,5.30
2022-12-11T04:25:08.637Z,5.30
2022-12-11T04:27:49.065Z,6.30
2022-12-11T04:30:22.552Z,5.90
2022-12-11T04:32:52.992Z,5.60
2022-12-11T04:35:22.288Z,6.20
2022-12-11T04:37:51.948Z,6.00
2022-12-11T04:40:21.208Z,5.30
2022-12-11T04:42:49.438Z,6.20
2022-12-11T04:45:17.991Z,5.60
2022-12-11T04:47:45.941Z,5.30
2022-12-11T04:50:16.155Z,5.90
2022-12-11T04:52:44.731Z,5.80
2022-12-11T04:55:13.651Z,5.40
2022-12-11T04:57:41.999Z,5.40
2022-12-11T05:00:12.914Z,5.10
2022-12-11T05:02:42.902Z,5.40
2022-12-11T05:05:12.370Z,6.10
2022-12-11T05:07:41.256Z,6.10
2022-12-11T05:10:10.340Z,6.10
2022-12-11T05:12:38.930Z,5.70
2022-12-11T05:15:08.051Z,5.80
2022-12-11T05:17:36.466Z,4.80
2022-12-11T05:20:05.372Z,5.40
2022-12-11T05:22:33.760Z,5.90
2022-12-11T05:25:01.718Z,5.90
2022-12-11T05:27:29.930Z,5.90
2022-12-11T05:29:59.558Z,6.20
2022-12-11T05:32:28.424Z,5.50
2022-12-11T05:34:56.398Z,5.90
2022-12-11T05:37:24.566Z,5.60
2022-12-11T05:39:52.690Z,6.20
2022-12-11T05:42:24.082Z,5.20
2022-12-11T05:44:56.548Z,5.10
2022-12-11T05:47:26.154Z,6.00
2022-12-11T05:49:54.959Z,5.90
2022-12-11T05:52:23.137Z,5.50
2022-12-11T05:54:51.020Z,6.00
2022-12-11T05:57:18.927Z,5.90
2022-12-11T05:59:47.394Z,5.90
2022-12-11T06:02:15.382Z,5.60
2022-12-11T06:04:43.476Z,5.40
2022-12-11T06:07:11.461Z,6.10
2022-12-11T06:09:39.506Z,5.00
2022-12-11T06:12:07.814Z,5.90
2022-12-11T06:14:35.983Z,5.60
2022-12-11T06:17:03.972Z,6.30
2022-12-11T06:19:36.581Z,6.10
2022-12-11T06:22:05.489Z,6.20
2022-12-11T06:24:33.596Z,5.70
2022-12-11T06:27:01.464Z,5.40
2022-12-11T06:29:29.432Z,5.60
2022-12-11T06:31:57.345Z,5.40
2022-12-11T06:34:25.579Z,5.80
2022-12-11T06:36:53.842Z,6.00
2022-12-11T06:39:21.924Z,5.90
2022-12-11T06:41:49.829Z,6.00
2022-12-11T06:44:18.068Z,6.30
2022-12-11T06:46:46.094Z,5.70
2022-12-11T06:49:14.281Z,6.30
2022-12-11T06:51:42.395Z,6.30
2022-12-11T06:54:10.270Z,5.50
2022-12-11T06:56:38.442Z,5.70
2022-12-11T06:59:07.774Z,5.40
2022-12-11T07:01:39.054Z,6.10
2022-12-11T07:04:15.915Z,5.60
2022-12-11T07:06:49.794Z,7.00
2022-12-11T07:09:20.423Z,6.20
2022-12-11T07:11:55.497Z,5.60
2022-12-11T07:14:27.280Z,5.50
2022-12-11T07:16:57.967Z,6.30
2022-12-11T07:19:28.657Z,5.70
2022-12-11T07:21:57.758Z,6.80
2022-12-11T07:24:25.914Z,6.30
2022-12-11T07:26:53.895Z,5.80
2022-12-11T07:29:21.972Z,5.70
2022-12-11T07:31:50.637Z,5.60
2022-12-11T07:34:18.985Z,5.80
2022-12-11T07:36:47.104Z,6.10
2022-12-11T07:39:15.175Z,5.30
2022-12-11T07:41:43.438Z,5.30
2022-12-11T07:44:12.174Z,5.50
2022-12-11T07:46:40.414Z,5.80
2022-12-11T07:49:08.853Z,5.80
2022-12-11T07:51:38.300Z,5.50
2022-12-11T07:54:15.316Z,6.80
2022-12-11T07:56:52.935Z,6.30
2022-12-11T07:59:21.972Z,5.50
2022-12-11T08:01:50.257Z,6.30
2022-12-11T08:04:18.628Z,6.40
2022-12-11T08:06:48.035Z,6.40
2022-12-11T08:09:20.936Z,5.90
2022-12-11T08:11:51.287Z,6.00
2022-12-11T08:14:21.035Z,5.80
2022-12-11T08:16:50.371Z,5.70
2022-12-11T08:19:18.852Z,6.00
2022-12-11T08:21:48.460Z,5.80
2022-12-11T08:24:20.416Z,6.60
2022-12-11T08:26:49.208Z,6.10
2022-12-11T08:29:17.450Z,5.90
2022-12-11T08:31:45.548Z,6.30
2022-12-11T08:34:14.308Z,6.10
2022-12-11T08:36:43.937Z,5.90
2022-12-11T08:39:11.880Z,6.30
2022-12-11T08:41:40.101Z,6.10
2022-12-11T08:44:16.644Z,5.50
2022-12-11T08:46:46.773Z,5.50
2022-12-11T08:49:14.749Z,6.00
2022-12-11T08:51:42.825Z,6.30
2022-12-11T08:54:11.899Z,6.50
2022-12-11T08:56:40.192Z,6.80
2022-12-11T08:59:08.366Z,5.90
2022-12-11T09:01:36.719Z,6.70
2022-12-11T09:04:05.071Z,6.20
2022-12-11T09:06:33.822Z,6.60
2022-12-11T09:09:02.799Z,6.30
2022-12-11T09:11:35.867Z,5.80
2022-12-11T09:14:07.936Z,7.20
2022-12-11T09:16:40.890Z,6.70
2022-12-11T09:19:14.241Z,6.40
2022-12-11T09:21:44.088Z,6.40
2022-12-11T09:24:13.899Z,6.60
2022-12-11T09:26:42.539Z,8.90
2022-12-11T09:29:12.256Z,7.20
2022-12-11T09:31:41.256Z,6.50
2022-12-11T09:34:13.417Z,7.00
2022-12-11T09:36:44.298Z,7.20
2022-12-11T09:39:14.534Z,7.50
2022-12-11T09:42:04.053Z,6.80
2022-12-11T09:44:46.623Z,7.30
2022-12-11T09:47:23.647Z,7.30
2022-12-11T09:50:06.055Z,7.20
2022-12-11T09:52:55.739Z,6.40
2022-12-11T09:55:29.536Z,7.60
2022-12-11T09:58:01.263Z,5.90
2022-12-11T10:00:48.529Z,6.40
2022-12-11T10:04:09.841Z,6.90
2022-12-11T10:06:59.166Z,7.20
2022-12-11T10:10:03.261Z,6.20
2022-12-11T10:12:41.129Z,6.40
2022-12-11T10:15:29.272Z,6.50
2022-12-11T10:18:04.922Z,7.20
2022-12-11T10:20:39.579Z,6.60
2022-12-11T10:23:22.491Z,7.90
2022-12-11T10:26:19.128Z,6.60
2022-12-11T10:28:47.988Z,6.70
2022-12-11T10:31:43.940Z,6.40
2022-12-11T10:34:39.132Z,7.40
2022-12-11T10:37:07.203Z,6.80
2022-12-11T10:39:35.275Z,7.00
2022-12-11T10:42:18.544Z,6.70
2022-12-11T10:45:02.769Z,7.10
2022-12-11T10:47:31.031Z,8.00
2022-12-11T10:50:04.751Z,8.90
2022-12-11T10:52:39.184Z,10.90
2022-12-11T10:55:22.434Z,7.90
2022-12-11T10:58:04.423Z,10.10
2022-12-11T11:00:42.283Z,14.30
2022-12-11T11:03:29.733Z,10.90
2022-12-11T11:06:18.167Z,8.30
2022-12-11T11:08:53.726Z,10.40
2022-12-11T11:11:35.096Z,11.70
2022-12-11T11:14:19.482Z,9.60
2022-12-11T11:16:52.561Z,11.30
2022-12-11T11:19:36.471Z,13.30
2022-12-11T11:22:18.345Z,9.70
2022-12-11T11:24:54.382Z,10.20
2022-12-11T11:27:48.939Z,11.70
2022-12-11T11:30:37.066Z,8.90
2022-12-11T11:33:23.238Z,9.80
2022-12-11T11:36:02.597Z,10.10
2022-12-11T11:39:26.479Z,8.80
2022-12-11T11:42:14.418Z,9.70
2022-12-11T11:45:01.740Z,10.30
2022-12-11T11:47:43.632Z,9.40
2022-12-11T11:50:33.012Z,8.90
2022-12-11T11:53:20.549Z,9.80
2022-12-11T11:56:07.450Z,9.90
2022-12-11T11:58:46.105Z,8.40
2022-12-11T12:01:20.710Z,9.00
2022-12-11T12:03:50.670Z,10.20
2022-12-11T12:06:37.120Z,8.70
2022-12-11T12:09:39.930Z,9.80
2022-12-11T12:13:48.046Z,9.70
2022-12-11T12:16:52.700Z,8.90
2022-12-11T12:19:43.738Z,8.40
2022-12-11T12:22:40.395Z,8.60
2022-12-11T12:25:48.627Z,11.80
2022-12-11T12:28:55.080Z,8.20
2022-12-11T12:31:50.997Z,8.30
2022-12-11T12:34:40.785Z,9.10
2022-12-11T12:37:29.690Z,9.20
2022-12-11T12:40:40.249Z,8.40
2022-12-11T12:43:45.196Z,8.70
2022-12-11T12:46:46.630Z,8.00
2022-12-11T12:49:33.931Z,8.20
2022-12-11T12:52:05.251Z,9.20
2022-12-11T12:54:36.250Z,8.00
2022-12-11T12:57:05.423Z,8.70
2022-12-11T12:59:37.889Z,8.40
2022-12-11T13:02:17.378Z,8.20
2022-12-11T13:05:04.449Z,9.50
2022-12-11T13:07:33.815Z,8.30
2022-12-11T13:10:30.898Z,7.90
2022-12-11T13:13:02.938Z,9.70
2022-12-11T13:15:44.963Z,8.40
2022-12-11T13:18:46.831Z,8.20
2022-12-11T13:21:33.135Z,10.60
2022-12-11T13:24:15.043Z,8.80
2022-12-11T13:26:44.667Z,7.60
2022-12-11T13:29:40.509Z,7.00
2022-12-11T13:32:18.051Z,7.90
2022-12-11T13:34:57.517Z,7.10
2022-12-11T13:37:41.745Z,8.70
2022-12-11T13:40:38.398Z,6.70
2022-12-11T13:43:18.908Z,8.00
2022-12-11T13:45:55.720Z,7.30
2022-12-11T13:48:36.922Z,6.70
2022-12-11T13:51:07.000Z,7.40
2022-12-11T13:53:34.990Z,7.80
2022-12-11T13:56:08.070Z,8.70
2022-12-11T13:58:39.512Z,6.40
2022-12-11T14:01:17.922Z,6.80
2022-12-11T14:04:09.552Z,7.50
2022-12-11T14:06:39.962Z,7.10
2022-12-11T14:09:09.325Z,6.80
2022-12-11T14:11:42.594Z,8.20
2022-12-11T14:14:25.819Z,8.40
2022-12-11T14:16:54.640Z,7.10
2022-12-11T14:19:25.024Z,7.50
2022-12-11T14:22:07.986Z,7.80
2022-12-11T14:24:36.128Z,7.00
2022-12-11T14:27:05.119Z,6.50
2022-12-11T14:29:34.042Z,7.20
2022-12-11T14:32:07.528Z,6.80
2022-12-11T14:34:45.528Z,7.00
2022-12-11T14:37:20.290Z,6.90
2022-12-11T14:40:03.775Z,8.50
2022-12-11T14:42:40.048Z,8.40
2022-12-11T14:45:28.117Z,6.80
2022-12-11T14:47:58.495Z,6.50
2022-12-11T14:50:34.268Z,7.30
2022-12-11T14:53:10.536Z,7.60
2022-12-11T14:55:40.867Z,6.60
2022-12-11T14:58:21.674Z,9.80
2022-12-11T15:01:05.269Z,7.00
2022-12-11T15:03:40.082Z,9.00
2022-12-11T15:06:30.497Z,7.80
2022-12-11T15:09:17.481Z,6.40
2022-12-11T15:11:47.413Z,7.90
2022-12-11T15:14:19.224Z,7.20
2022-12-11T15:16:49.402Z,7.60
2022-12-11T15:19:36.926Z,8.20
2022-12-11T15:22:09.638Z,7.40
2022-12-11T15:24:44.431Z,12.10
2022-12-11T15:27:33.540Z,8.80
2022-12-11T15:30:02.723Z,7.70
2022-12-11T15:32:31.295Z,7.90
2022-12-11T15:35:00.749Z,7.70
2022-12-11T15:37:36.712Z,7.30
2022-12-11T15:40:06.246Z,6.50
2022-12-11T15:42:41.765Z,7.20
2022-12-11T15:45:18.700Z,7.60
2022-12-11T15:47:48.867Z,7.90
2022-12-11T15:50:18.823Z,8.00
2022-12-11T15:52:47.869Z,7.80
2022-12-11T15:55:18.645Z,9.10
2022-12-11T15:57:56.830Z,7.60
2022-12-11T16:00:27.087Z,7.10
2022-12-11T16:02:57.174Z,7.90
2022-12-11T16:05:27.002Z,7.80
2022-12-11T16:07:59.745Z,7.50
2022-12-11T16:10:28.157Z,7.20
2022-12-11T16:12:59.806Z,7.20
2022-12-11T16:15:29.561Z,7.00
2022-12-11T16:18:08.747Z,6.80
2022-12-11T16:20:41.107Z,8.30
2022-12-11T16:23:10.333Z,7.40
2022-12-11T16:25:42.204Z,8.80
2022-12-11T16:28:14.707Z,6.70
2022-12-11T16:30:43.708Z,7.80
2022-12-11T16:33:13.684Z,6.90
2022-12-11T16:35:43.074Z,8.60
2022-12-11T16:38:12.179Z,7.20
2022-12-11T16:40:41.607Z,6.60
2022-12-11T16:43:11.088Z,6.80
2022-12-11T16:45:39.948Z,7.20
2022-12-11T16:48:07.912Z,6.40
2022-12-11T16:50:36.623Z,7.40
2022-12-11T16:53:04.821Z,6.30
2022-12-11T16:55:32.763Z,7.80
2022-12-11T16:58:01.469Z,7.00
2022-12-11T17:00:31.406Z,6.80
2022-12-11T17:02:59.548Z,7.60
2022-12-11T17:05:27.739Z,7.30
2022-12-11T17:07:56.253Z,6.40
2022-12-11T17:10:24.587Z,7.80
2022-12-11T17:12:52.682Z,9.60
2022-12-11T17:15:20.833Z,6.90
2022-12-11T17:17:48.918Z,7.40
2022-12-11T17:20:18.317Z,7.40
2022-12-11T17:22:46.278Z,6.20
2022-12-11T17:25:19.308Z,7.60
2022-12-11T17:27:47.341Z,7.60
2022-12-11T17:30:16.405Z,7.00
2022-12-11T17:32:48.855Z,7.00
2022-12-11T17:35:17.391Z,6.00
2022-12-11T17:37:45.564Z,7.70
2022-12-11T17:40:13.637Z,6.30
2022-12-11T17:42:44.264Z,7.80
2022-12-11T17:45:12.556Z,6.60
2022-12-11T17:47:41.027Z,5.80
2022-12-11T17:50:10.139Z,6.50
2022-12-11T17:52:43.835Z,6.50
2022-12-11T17:55:12.659Z,7.30
2022-12-11T17:57:40.996Z,8.60
2022-12-11T18:00:10.193Z,7.10
2022-12-11T18:02:40.333Z,8.00
2022-12-11T18:05:08.691Z,7.20
2022-12-11T18:07:37.993Z,7.10
2022-12-11T18:10:06.925Z,7.70
2022-12-11T18:12:35.158Z,7.00
2022-12-11T18:15:05.490Z,6.70
2022-12-11T18:17:33.806Z,7.80
2022-12-11T18:20:02.142Z,7.20
2022-12-11T18:22:30.350Z,7.40
2022-12-11T18:24:58.700Z,6.50
2022-12-11T18:27:26.867Z,7.40
2022-12-11T18:29:55.689Z,6.30
2022-12-11T18:32:24.676Z,6.60
2022-12-11T18:34:53.027Z,6.70
2022-12-11T18:37:27.580Z,6.40
2022-12-11T18:39:56.285Z,7.00
2022-12-11T18:42:32.616Z,5.50
2022-12-11T18:45:02.497Z,7.20
2022-12-11T18:47:31.205Z,6.90
2022-12-11T18:50:03.898Z,6.80
2022-12-11T18:52:35.744Z,7.00
2022-12-11T18:55:05.166Z,6.30
2022-12-11T18:57:33.446Z,6.10
2022-12-11T19:00:07.524Z,5.40
2022-12-11T19:02:35.817Z,5.90
2022-12-11T19:05:04.808Z,6.30
2022-12-11T19:07:32.832Z,6.50
2022-12-11T19:10:01.218Z,5.70
2022-12-11T19:12:29.329Z,6.50
2022-12-11T19:14:57.499Z,5.80
2022-12-11T19:17:25.577Z,9.40
2022-12-11T19:19:54.057Z,6.40
2022-12-11T19:22:22.055Z,7.00
2022-12-11T19:24:50.095Z,7.30
2022-12-11T19:27:17.996Z,5.80
2022-12-11T19:29:46.091Z,5.90
2022-12-11T19:32:14.107Z,6.80
2022-12-11T19:34:42.185Z,6.60
2022-12-11T19:37:10.475Z,6.50
2022-12-11T19:39:40.167Z,6.80
2022-12-11T19:42:08.142Z,6.10
2022-12-11T19:44:36.313Z,7.00
2022-12-11T19:47:05.081Z,6.80
2022-12-11T19:49:33.131Z,8.70
2022-12-11T19:52:01.196Z,8.20
2022-12-11T19:54:29.209Z,8.10
2022-12-11T19:56:57.695Z,8.90
2022-12-11T19:59:25.869Z,7.30
2022-12-11T20:01:53.947Z,9.30
2022-12-11T20:04:22.230Z,7.70
2022-12-11T20:06:50.493Z,8.70
2022-12-11T20:09:18.925Z,7.30
2022-12-11T20:11:48.074Z,9.80
2022-12-11T20:14:25.835Z,9.20
2022-12-11T20:17:11.316Z,7.50
2022-12-11T20:19:41.670Z,7.80
2022-12-11T20:22:10.062Z,7.80
2022-12-11T20:24:38.641Z,9.40
2022-12-11T20:27:06.946Z,11.70
2022-12-11T20:29:35.195Z,8.40
2022-12-11T20:32:03.414Z,10.10
2022-12-11T20:34:31.558Z,10.70
2022-12-11T20:37:00.363Z,8.40
2022-12-11T20:39:29.410Z,8.70
2022-12-11T20:41:57.931Z,6.30
2022-12-11T20:44:26.078Z,9.30
2022-12-11T20:46:54.464Z,8.60
2022-12-11T20:49:22.746Z,7.20
2022-12-11T20:51:51.219Z,8.20
2022-12-11T20:54:19.595Z,8.40
2022-12-11T20:56:47.956Z,9.80
2022-12-11T20:59:18.522Z,10.50
2022-12-11T21:01:46.723Z,8.40
2022-12-11T21:04:14.856Z,9.90
2022-12-11T21:06:43.028Z,8.00
2022-12-11T21:09:17.839Z,10.00
2022-12-11T21:11:46.338Z,9.50
2022-12-11T21:14:16.277Z,7.50
2022-12-11T21:16:45.796Z,9.80
2022-12-11T21:19:17.518Z,10.80
2022-12-11T21:21:46.923Z,9.30
2022-12-11T21:24:26.628Z,9.90
2022-12-11T21:26:59.231Z,8.30
2022-12-11T21:29:29.662Z,9.00
2022-12-11T21:31:58.823Z,7.10
2022-12-11T21:34:27.661Z,9.60
2022-12-11T21:36:57.320Z,7.50
2022-12-11T21:39:28.754Z,9.10
2022-12-11T21:41:58.325Z,7.90
2022-12-11T21:47:16.384Z,9.50
2022-12-11T21:49:44.291Z,9.50
2022-12-11T21:52:13.665Z,8.50
2022-12-11T21:54:42.680Z,8.50
2022-12-11T21:57:11.130Z,7.30
2022-12-11T21:59:39.610Z,7.20
2022-12-11T22:02:08.024Z,7.40
2022-12-11T22:04:37.185Z,6.90
2022-12-11T22:07:05.367Z,6.70
2022-12-11T22:09:33.436Z,6.00
2022-12-11T22:12:02.033Z,9.00
2022-12-11T22:14:31.515Z,9.20
2022-12-11T22:17:00.980Z,6.60
2022-12-11T22:19:32.526Z,8.30
2022-12-11T22:22:01.069Z,6.50
2022-12-11T22:24:29.055Z,6.90
2022-12-11T22:26:57.206Z,6.90
2022-12-11T22:29:25.279Z,8.00
2022-12-11T22:31:54.681Z,6.30
2022-12-11T22:34:22.956Z,6.60
2022-12-11T22:36:51.590Z,7.30
2022-12-11T22:39:20.215Z,5.60
2022-12-11T22:41:48.199Z,6.40
2022-12-11T22:44:20.419Z,5.30
2022-12-11T22:46:50.548Z,5.30
2022-12-11T22:49:20.605Z,6.40
2022-12-11T22:51:49.801Z,5.90
2022-12-11T22:54:18.027Z,5.60
2022-12-11T22:56:46.253Z,6.10
2022-12-11T22:59:14.328Z,5.60
2022-12-11T23:01:42.393Z,4.70
2022-12-11T23:04:10.320Z,5.40
2022-12-11T23:06:38.861Z,6.10
2022-12-11T23:09:07.785Z,5.70
2022-12-11T23:11:38.579Z,5.30
2022-12-11T23:14:11.138Z,4.90
2022-12-11T23:16:39.171Z,4.90
2022-12-11T23:19:07.794Z,5.80
2022-12-11T23:21:36.185Z,7.20
2022-12-11T23:24:05.328Z,5.20
2022-12-11T23:26:33.975Z,4.50
2022-12-11T23:29:05.135Z,4.90
2022-12-11T23:31:34.294Z,5.20
2022-12-11T23:34:02.387Z,4.90
2022-12-11T23:36:30.760Z,5.10
2022-12-11T23:38:58.832Z,4.60
2022-12-11T23:41:27.318Z,4.70
2022-12-11T23:43:55.390Z,4.30
2022-12-11T23:46:25.279Z,4.90
2022-12-11T23:48:54.745Z,5.10
2022-12-11T23:51:25.057Z,4.70
2022-12-11T23:53:54.734Z,6.00
2022-12-11T23:56:27.123Z,4.90
2022-12-11T23:58:56.393Z,4.90
